Latest Weather Observations for Laverton

IDV60801

Issued at 10:02 am EDT Thursday 23 January 2020 (issued every 10 minutes, with the page automatically refreshed every 10 minutes)

About weather observations | Map of weather stations | Latest weather observations for VIC | Other Formats
Station Details ID: 087031 Name: LAVERTON RAAF Lat: -37.86 Lon: 144.76 Height: 20.1 m
Data from the previous 72 hours. | See also: Recent months at Laverton
Date/Time
EDT
Temp
°C
App
Temp
°C
Dew
Point
°C
Rel
Hum
%
Delta-T
°C
Wind Press
QNH
hPa
Press
MSL
hPa
Rain since
9am
mm
Dir  Spd
km/h
Gust
km/h
Spd
kts
Gust
kts
23/10:00am 15.3 13.7 14.0 92 0.7 N 15 28 8 15 997.3 997.3 0.4
23/09:30am 14.5 14.5 14.3 99 0.1 N 7 13 4 7 997.4 997.4 0.4
23/09:00am 14.4 14.6 14.2 99 0.1 W 6 7 3 4 997.1 997.1 31.2
23/08:34am 14.3 14.8 14.1 99 0.1 NW 4 11 2 6 996.6 996.6 30.2
23/08:30am 14.3 14.8 14.1 99 0.1 NNW 4 7 2 4 996.7 996.7 30.0
23/08:00am 14.3 13.2 14.3 100 0.0 NW 13 19 7 10 996.6 996.6 29.6
23/07:30am 14.0 13.6 14.0 100 0.0 NNW 9 13 5 7 996.5 996.5 29.4
23/07:00am 13.6 12.3 13.6 100 0.0 N 13 17 7 9 996.0 996.0 28.8
23/06:30am 13.2 11.4 13.2 100 0.0 NNE 15 20 8 11 996.0 996.0 27.8
23/06:00am 12.8 11.2 12.8 100 0.0 NNE 13 20 7 11 996.1 996.1 27.0
23/05:30am 12.7 12.2 12.7 100 0.0 NE 7 13 4 7 996.4 996.4 25.4
23/05:00am 12.4 12.0 12.4 100 0.0 NE 6 9 3 5 997.2 997.2 24.0
23/04:30am 12.3 13.0 12.3 100 0.0 CALM 0 4 0 2 997.6 997.6 22.6
23/04:00am 12.3 11.2 12.1 99 0.1 W 9 13 5 7 997.6 997.6 21.0
23/03:30am 12.4 11.4 12.4 100 0.0 WSW 9 13 5 7 997.8 997.8 19.4
23/03:00am 12.5 11.6 12.5 100 0.0 W 9 17 5 9 997.8 997.8 17.8
23/02:38am 12.6 11.7 12.6 100 0.0 WSW 9 15 5 8 999.2 999.2 17.0
23/02:30am 12.4 11.4 12.4 100 0.0 SW 9 15 5 8 998.2 998.2 16.8
23/02:04am 12.3 11.3 12.3 100 0.0 SSW 9 13 5 7 998.9 998.9 16.2
23/02:00am 12.3 10.9 12.3 100 0.0 S 11 17 6 9 998.7 998.7 16.2
23/01:30am 12.4 11.0 12.2 99 0.1 SW 11 17 6 9 999.3 999.3 15.0
23/01:28am 12.4 11.0 12.2 99 0.1 SW 11 17 6 9 999.4 999.4 14.6
23/01:02am 12.5 10.8 12.3 99 0.1 SW 13 17 7 9 999.6 999.6 12.8
23/01:00am 12.4 10.6 12.2 99 0.1 SW 13 20 7 11 999.7 999.7 12.4
23/12:51am 12.4 9.9 12.2 99 0.1 SW 17 24 9 13 999.6 999.6 11.6
23/12:30am 12.9 9.9 12.7 99 0.1 SW 20 30 11 16 1000.2 1000.2 10.2
23/12:07am 14.1 12.1 13.9 99 0.1 S 17 22 9 12 1000.2 1000.2 7.4
23/12:00am 14.4 13.7 14.2 99 0.1 SSW 11 20 6 11 999.7 999.7 6.6
 
Date/Time
EDT
Temp
°C
App
Temp
°C
Dew
Point
°C
Rel
Hum
%
Delta-T
°C
Wind Press
QNH
hPa
Press
MSL
hPa
Rain since
9am
mm
Dir  Spd
km/h
Gust
km/h
Spd
kts
Gust
kts
22/11:30pm 15.2 16.1 15.0 99 0.1 SW 4 6 2 3 1001.2 1001.2 3.6
22/11:00pm 15.4 15.7 14.9 97 0.3 SW 7 15 4 8 1001.1 1001.1 2.2
22/10:36pm 15.6 13.6 15.0 96 0.3 SW 19 24 10 13 1001.2 1001.2 1.2
22/10:30pm 15.6 13.5 14.8 95 0.5 SW 19 26 10 14 1000.8 1000.8 1.2
22/10:04pm 16.6 14.9 15.8 95 0.5 SSW 19 26 10 14 1000.7 1000.7 0.4
22/10:00pm 16.6 14.7 15.8 95 0.5 SSW 20 28 11 15 1000.5 1000.5 0.2
22/09:30pm 17.3 14.6 14.6 84 1.6 SSW 22 37 12 20 999.9 999.9 0.0
22/09:00pm 17.8 15.3 15.1 84 1.6 S 22 37 12 20 999.5 999.5 0.0
22/08:30pm 18.4 15.2 15.3 82 1.8 S 26 41 14 22 998.4 998.4 0.0
22/08:00pm 18.9 13.0 14.6 76 2.5 SSW 39 56 21 30 998.0 998.0 0.0
22/07:30pm 19.8 14.7 14.8 73 2.9 SSW 35 54 19 29 997.1 997.1 0.0
22/07:22pm 20.7 15.8 14.4 67 3.7 SSW 33 54 18 29 996.5 996.5 0.0
22/07:13pm 24.3 20.2 13.8 52 6.2 WNW 28 41 15 22 996.1 996.1 0.0
22/07:02pm 30.0 24.1 9.0 27 11.7 N 30 59 16 32 994.9 994.9 0.0
22/07:00pm 29.9 24.1 9.4 28 11.6 N 30 44 16 24 994.9 994.9 0.0
22/06:30pm 30.9 23.6 8.6 25 12.4 N 37 61 20 33 994.9 994.9 0.0
22/06:00pm 31.7 24.6 8.0 23 13.2 NNW 35 70 19 38 995.2 995.2 0.0
22/05:30pm 31.4 25.0 8.4 24 12.8 N 32 54 17 29 995.5 995.5 0.0
22/05:00pm 32.5 25.7 9.3 24 13.2 NNW 35 56 19 30 995.8 995.8 0.0
22/04:30pm 31.1 24.4 8.2 24 12.6 N 33 57 18 31 996.0 996.0 0.0
22/04:00pm 30.6 23.4 7.7 24 12.6 NNW 35 57 19 31 996.6 996.6 0.0
22/03:30pm 31.0 21.9 6.8 22 13.1 NNW 44 65 24 35 996.9 996.9 0.0
22/03:00pm 31.5 24.1 8.5 24 12.9 NNW 37 56 20 30 997.7 997.7 0.0
22/02:30pm 31.5 23.9 9.1 25 12.6 NNW 39 61 21 33 998.2 998.2 0.0
22/02:00pm 31.3 23.3 8.9 25 12.6 N 41 63 22 34 998.5 998.5 0.0
22/01:30pm 30.7 23.4 10.1 28 11.7 N 39 61 21 33 999.3 999.3 0.0
22/01:00pm 30.3 24.5 10.8 30 11.2 NNW 32 50 17 27 999.6 999.6 0.0
22/12:30pm 28.8 21.3 10.9 33 10.2 N 41 65 22 35 999.9 999.9 0.0
22/12:09pm 29.8 24.3 11.8 33 10.5 NNW 32 50 17 27 1000.1 1000.1 0.0
22/12:00pm 29.1 23.5 12.1 35 10.0 N 33 50 18 27 1000.1 1000.1 0.0
22/11:30am 28.9 23.6 13.2 38 9.3 N 33 52 18 28 1000.6 1000.6 0.0
22/11:00am 26.3 21.1 12.7 43 7.9 N 32 54 17 29 1000.7 1000.7 0.0
22/10:30am 24.9 18.7 12.5 46 7.1 N 37 67 20 36 1001.2 1001.2 0.0
22/10:00am 24.3 16.9 12.9 49 6.6 N 44 63 24 34 1001.6 1001.6 0.0
22/09:36am 23.2 17.5 13.1 53 5.8 N 35 56 19 30 1001.8 1001.8 0.0
22/09:30am 23.0 17.0 13.2 54 5.7 N 37 52 20 28 1002.0 1002.0 0.0
22/09:00am 22.1 15.1 12.4 54 5.5 N 41 61 22 33 1002.0 1002.0 0.0
22/08:30am 21.9 16.3 11.6 52 5.8 N 32 50 17 27 1002.4 1002.4 0.0
22/08:10am 21.8 16.3 10.6 49 6.1 N 30 50 16 27 1002.4 1002.4 0.0
22/08:00am 21.4 15.9 10.6 50 5.9 N 30 41 16 22 1002.6 1002.6 0.0
22/07:44am 21.3 15.6 9.9 48 6.2 N 30 48 16 26 1002.7 1002.7 0.0
22/07:30am 20.5 15.1 9.4 49 5.9 N 28 41 15 22 1002.7 1002.7 0.0
22/07:22am 20.4 14.9 9.3 49 5.9 N 28 46 15 25 1002.8 1002.8 0.0
22/07:00am 20.4 14.8 8.7 47 6.2 N 28 39 15 21 1002.9 1002.9 0.0
22/06:30am 19.8 15.8 9.1 50 5.6 NNE 20 32 11 17 1003.1 1003.1 0.0
22/06:00am 17.3 14.0 9.7 61 4.0 NNE 17 20 9 11 1003.5 1003.5 0.0
22/05:30am 17.2 13.6 9.9 62 3.8 NNE 19 24 10 13 1003.8 1003.8 0.0
22/05:00am 16.6 14.3 10.5 67 3.3 NNE 13 19 7 10 1003.9 1003.9 0.0
22/04:30am 15.2 13.2 11.4 78 2.0 NNE 13 17 7 9 1004.0 1004.0 0.0
22/04:00am 13.9 12.5 12.3 90 0.9 NNE 11 15 6 8 1004.3 1004.3 0.0
22/03:30am 13.1 11.9 11.7 91 0.7 NE 9 11 5 6 1004.6 1004.6 0.0
22/03:00am 13.8 12.8 12.2 90 0.9 NNE 9 11 5 6 1005.1 1005.1 0.0
22/02:30am 13.2 13.3 11.4 89 1.0 ENE 2 6 1 3 1005.4 1005.4 0.0
22/02:00am 13.4 12.7 11.5 88 1.0 ENE 6 7 3 4 1005.8 1005.8 0.0
22/01:30am 14.1 13.3 11.6 85 1.3 ENE 7 9 4 5 1006.0 1006.0 0.0
22/01:00am 13.9 13.1 11.2 84 1.4 E 6 6 3 3 1006.6 1006.6 0.0
22/12:30am 14.1 14.5 11.1 82 1.6 CALM 0 6 0 3 1006.7 1006.7 0.0
22/12:00am 14.6 13.8 11.2 80 1.8 E 6 7 3 4 1007.1 1007.1 0.0
 
Date/Time
EDT
Temp
°C
App
Temp
°C
Dew
Point
°C
Rel
Hum
%
Delta-T
°C
Wind Press
QNH
hPa
Press
MSL
hPa
Rain since
9am
mm
Dir  Spd
km/h
Gust
km/h
Spd
kts
Gust
kts
21/11:30pm 15.1 13.8 11.3 78 2.0 E 9 13 5 7 1007.3 1007.3 0.0
21/11:00pm 15.7 14.4 11.3 75 2.4 ESE 9 13 5 7 1007.9 1007.9 0.0
21/10:30pm 16.0 14.4 11.4 74 2.5 ESE 11 17 6 9 1008.1 1008.1 0.0
21/10:00pm 16.4 14.8 11.6 73 2.6 ESE 11 17 6 9 1008.0 1008.0 0.0
21/09:30pm 16.5 15.9 11.6 73 2.7 SE 6 9 3 5 1007.7 1007.7 0.0
21/09:00pm 16.7 14.7 11.6 72 2.8 S 13 17 7 9 1007.6 1007.6 0.0
21/08:30pm 16.9 14.5 11.4 70 3.0 SSE 15 20 8 11 1007.6 1007.6 0.0
21/08:00pm 17.5 14.4 11.5 68 3.3 SSE 19 26 10 14 1007.8 1007.8 0.0
21/07:30pm 18.0 14.6 11.3 65 3.6 S 20 28 11 15 1007.6 1007.6 0.0
21/07:00pm 18.5 15.2 11.6 64 3.8 SSE 20 32 11 17 1007.4 1007.4 0.0
21/06:30pm 18.8 15.1 11.6 63 4.0 S 22 30 12 16 1007.3 1007.3 0.0
21/06:00pm 19.4 15.8 11.7 61 4.3 SSE 22 33 12 18 1007.3 1007.3 0.0
21/05:30pm 19.4 15.7 11.4 60 4.4 SSE 22 32 12 17 1007.3 1007.3 0.0
21/05:00pm 19.7 15.9 11.2 58 4.7 SSE 22 30 12 16 1007.5 1007.5 0.0
21/04:30pm 20.1 16.9 11.3 57 4.8 SSE 19 26 10 14 1007.8 1007.8 0.0
21/04:00pm 19.9 16.5 10.6 55 5.1 SE 19 28 10 15 1008.0 1008.0 0.0
21/03:30pm 20.3 16.8 11.0 55 5.1 SE 20 28 11 15 1008.3 1008.3 0.0
21/03:00pm 20.4 17.1 10.8 54 5.3 ESE 19 26 10 14 1008.5 1008.5 0.0
21/02:30pm 19.9 17.3 9.2 50 5.7 ESE 13 22 7 12 1008.8 1008.8 0.0
21/02:00pm 20.0 16.7 9.6 51 5.6 ESE 17 24 9 13 1009.1 1009.1 0.0
21/01:30pm 19.7 16.9 10.1 54 5.2 SE 15 24 8 13 1009.4 1009.4 0.0
21/01:00pm 20.9 19.4 9.2 47 6.2 SW 7 13 4 7 1009.9 1009.9 0.0
21/12:30pm 19.9 17.4 8.3 47 6.0 WSW 11 19 6 10 1010.3 1010.3 0.0
21/12:00pm 19.0 16.1 8.1 49 5.6 W 13 20 7 11 1010.4 1010.4 0.0
21/11:30am 18.5 16.4 9.6 56 4.7 WSW 11 19 6 10 1010.6 1010.6 0.0
21/11:00am 18.3 15.6 8.8 54 4.9 W 13 17 7 9 1010.9 1010.9 0.0
21/10:30am 17.3 15.4 9.0 58 4.3 SW 9 13 5 7 1011.0 1011.0 0.0
21/10:00am 17.0 15.0 8.7 58 4.3 SW 9 15 5 8 1011.2 1011.2 0.0
21/09:30am 16.5 13.7 8.7 60 4.0 W 13 19 7 10 1010.9 1010.9 0.0
21/09:00am 15.9 13.0 9.8 67 3.2 W 15 24 8 13 1011.0 1011.0 6.8
21/08:30am 15.0 12.3 10.2 73 2.5 W 15 19 8 10 1010.6 1010.6 6.8
21/08:00am 14.2 11.2 10.6 79 1.9 W 17 22 9 12 1010.2 1010.2 6.8
21/07:30am 13.8 11.2 10.6 81 1.7 W 15 20 8 11 1010.1 1010.1 6.8
21/07:00am 13.8 11.5 10.4 80 1.8 W 13 19 7 10 1009.5 1009.5 6.8
21/06:30am 14.0 11.7 10.6 80 1.8 W 13 20 7 11 1009.3 1009.3 6.8
21/06:00am 14.2 11.2 10.8 80 1.8 WSW 17 22 9 12 1009.0 1009.0 6.8
21/05:30am 14.4 11.3 10.4 77 2.1 WSW 17 22 9 12 1008.7 1008.7 6.8
21/05:00am 14.5 11.5 10.5 77 2.1 WSW 17 22 9 12 1008.4 1008.4 6.8
21/04:30am 14.6 12.0 10.8 78 2.0 WSW 15 22 8 12 1008.2 1008.2 6.8
21/04:00am 14.7 11.8 10.9 78 2.0 WSW 17 24 9 13 1008.0 1008.0 6.8
21/03:30am 14.6 11.7 11.0 79 1.9 WSW 17 22 9 12 1008.0 1008.0 6.8
21/03:00am 14.6 11.7 11.0 79 1.9 WSW 17 24 9 13 1008.1 1008.1 6.8
21/02:30am 14.7 11.9 11.3 80 1.8 WSW 17 24 9 13 1008.2 1008.2 6.8
21/02:00am 14.8 12.1 11.6 81 1.7 WSW 17 26 9 14 1008.3 1008.3 6.8
21/01:30am 14.9 12.2 11.7 81 1.7 WSW 17 24 9 13 1008.4 1008.4 6.8
21/01:00am 15.0 11.6 11.4 79 1.9 SW 20 28 11 15 1008.4 1008.4 6.8
21/12:30am 15.0 11.8 12.0 82 1.6 SW 20 33 11 18 1008.4 1008.4 6.8
21/12:00am 15.1 11.7 12.4 84 1.5 SW 22 32 12 17 1008.3 1008.3 6.8
 
Date/Time
EDT
Temp
°C
App
Temp
°C
Dew
Point
°C
Rel
Hum
%
Delta-T
°C
Wind Press
QNH
hPa
Press
MSL
hPa
Rain since
9am
mm
Dir  Spd
km/h
Gust
km/h
Spd
kts
Gust
kts
20/11:30pm 15.1 11.7 13.6 91 0.8 SW 24 33 13 18 1008.3 1008.3 6.8
20/11:18pm 15.1 12.6 14.1 94 0.6 SW 20 30 11 16 1008.2 1008.2 6.8
20/11:00pm 15.1 12.0 14.6 97 0.3 SW 24 33 13 18 1008.2 1008.2 6.8
20/10:30pm 15.2 12.3 15.2 100 0.0 SW 24 33 13 18 1007.9 1007.9 6.8
20/10:00pm 15.1 12.6 15.1 100 0.0 SW 22 30 12 16 1007.7 1007.7 6.8
20/09:30pm 15.2 13.1 15.2 100 0.0 SW 20 26 11 14 1007.3 1007.3 6.8
20/09:00pm 15.4 12.6 15.4 100 0.0 SW 24 33 13 18 1007.0 1007.0 6.4
20/08:30pm 15.6 13.3 15.6 100 0.0 SW 22 35 12 19 1006.6 1006.6 5.6
20/08:00pm 15.6 12.5 15.6 100 0.0 SW 26 39 14 21 1006.3 1006.3 4.6
20/07:30pm 16.0 13.8 16.0 100 0.0 SSW 22 33 12 18 1005.8 1005.8 3.0
20/07:00pm 16.1 13.6 16.1 100 0.0 SSW 24 35 13 19 1005.5 1005.5 1.6
20/06:30pm 16.6 14.7 16.6 100 0.0 SSW 22 35 12 19 1005.0 1005.0 0.6
20/06:18pm 16.6 14.3 16.6 100 0.0 SSW 24 35 13 19 1004.9 1004.9 0.4
20/06:07pm 16.6 13.8 16.4 99 0.1 S 26 39 14 21 1004.9 1004.9 0.4
20/06:00pm 16.6 13.4 16.4 99 0.1 S 28 39 15 21 1004.8 1004.8 0.2
20/05:30pm 17.3 13.3 15.3 88 1.2 S 30 43 16 23 1004.6 1004.6 0.0
20/05:00pm 17.0 13.4 16.2 95 0.5 S 30 43 16 23 1004.4 1004.4 0.0
20/04:30pm 17.4 13.1 15.4 88 1.2 S 32 43 17 23 1004.2 1004.2 0.0
20/04:19pm 17.8 13.8 15.1 84 1.6 S 30 48 16 26 1004.2 1004.2 0.0
20/04:00pm 18.0 14.1 15.4 85 1.5 S 30 44 16 24 1004.1 1004.1 0.0
20/03:30pm 18.2 14.0 15.6 85 1.5 S 32 46 17 25 1004.0 1004.0 0.0
20/03:00pm 18.8 14.6 15.7 82 1.8 S 32 46 17 25 1004.0 1004.0 0.0
20/02:54pm 18.8 14.7 16.0 84 1.7 S 32 50 17 27 1004.0 1004.0 0.0
20/02:30pm 19.3 16.0 16.0 81 2.0 SSE 28 41 15 22 1004.0 1004.0 0.0
20/02:00pm 19.6 15.6 16.1 80 2.1 S 32 44 17 24 1004.1 1004.1 0.0
20/01:30pm 20.1 16.6 16.5 80 2.2 SSE 30 41 16 22 1004.1 1004.1 0.0
20/01:00pm 20.1 16.4 16.9 82 1.9 S 32 41 17 22 1004.2 1004.2 0.0
20/12:30pm 20.9 18.5 17.3 80 2.2 SSW 26 33 14 18 1004.3 1004.3 0.0
20/12:00pm 19.9 18.5 18.0 89 1.2 S 22 28 12 15 1004.7 1004.7 0.0
20/11:47am 19.7 18.6 17.7 88 1.2 S 20 30 11 16 1004.8 1004.8 0.0
20/11:30am 20.3 19.6 17.3 83 1.8 S 17 20 9 11 1004.8 1004.8 0.0
20/11:10am 20.4 19.5 17.8 85 1.6 SSE 19 24 10 13 1004.7 1004.7 0.0
20/11:00am 20.2 19.5 17.4 84 1.7 S 17 22 9 12 1004.7 1004.7 0.0
20/10:30am 21.0 20.0 18.0 83 1.9 S 20 28 11 15 1004.2 1004.2 0.0

Other formats

Comma delimited format used in spreadsheet applications
http://www.bom.gov.au/fwo/IDV60801/IDV60801.94865.axf

JavaScript Object Notation format (JSON) in row-major order
http://www.bom.gov.au/fwo/IDV60801/IDV60801.94865.json

Data quality

Most of these data are generated automatically and are frequently updated. Quality checks on data are not normally performed. It is possible for incorrect values to appear. Refer to information at About Latest Weather Observations and please check the disclaimer before using these data.